Airfield :
LOGIN :

Register | Disclaimer

   EN    FR    IT 

 










Legend :    VFR   Marginal VFR   IFR   Intensive IFR   Very Intensive IFR
Visi :
Ceiling :
>= 8 km
>= 3000ft
5 to 8 km
1000 to 3000 ft
1500m to 5 km
500 to 1000 ft
800 to 1500m
200 to 500 ft
< 800m
< 200 ft
Symbols :   Thunderstorms  Fog  Heavy snow  Heavy precipitations  Wind > 20 kt
SIGMETs :     Misc.  Thunderstorms  Icing  Turbulence  Mountain Waves  Volcanic Ashes







- Airport Elevation : 333 ft


LIPL - Ghedi Brescia (Mil)

CURRENT METAR :
  • 190955Z /////KT 9999 FEW020 SCT030 05/M03 Q1019 RMK BKN VIS MIN 9999 WIND THR31 00000KT BLU

EXPIRED METARs :
  • 190855Z /////KT 9999 FEW025 BKN043 05/M04 Q1019 RMK BKN VIS MIN 9999 WIND THR31 00000KT BLU

TAF TAF LIPL
Valid from the 19 at 09:00 until the 19 at 18:00 UTC


190800Z 1909/1918 10008KT 9999 SCT020 BKN070
No reported NOTAMs for that airfield.
1 SIGMET reported for the Milano FIR (LIMM) :
 
Severe icing
LIMM SIGMET 1 VALID 191000/191400 LIIP
LIMM MILANO FIR SEV ICE OBS WI N4452 E01234 - N4421 E01019 - N4336 E01214 - N4331 E01429 - N4452 E01234 FL025/100 STNR NC=



MET'MAP, your aeronautical weather chart ! - Copyright ORBIFLY December 2007 - Disclaimer

ORBIFLY MET'MAP TEAM :

Programming & Development : Alexandra Zaïnal
Concept & Development : Baudouin d'Aumeries
Co-Development & Prog : Marc-Olivier Méhu
Technical & hardware support : Manuel Goepfert

Contact : metmap@orbifly.com




SOURCES & CREDITS :

   NOAA